sensor_id;sensor_type;location;lat;lon;timestamp;P1;durP1;ratioP1;P2;durP2;ratioP2
16153;SDS011;8182;55.648;13.208;2023-07-02T00:00:02;5.97;;;2.90;;
16153;SDS011;8182;55.648;13.208;2023-07-02T00:02:36;7.13;;;2.70;;
16153;SDS011;8182;55.648;13.208;2023-07-02T00:05:05;6.20;;;2.70;;
16153;SDS011;8182;55.648;13.208;2023-07-02T00:07:37;6.53;;;2.67;;
16153;SDS011;8182;55.648;13.208;2023-07-02T00:10:04;7.80;;;2.90;;
16153;SDS011;8182;55.648;13.208;2023-07-02T00:12:31;6.00;;;2.50;;
16153;SDS011;8182;55.648;13.208;2023-07-02T00:15:01;7.03;;;3.10;;
16153;SDS011;8182;55.648;13.208;2023-07-02T00:17:29;7.03;;;3.27;;
16153;SDS011;8182;55.648;13.208;2023-07-02T00:19:56;12.03;;;3.30;;
16153;SDS011;8182;55.648;13.208;2023-07-02T00:22:29;6.97;;;3.30;;
16153;SDS011;8182;55.648;13.208;2023-07-02T00:24:56;8.50;;;3.10;;
16153;SDS011;8182;55.648;13.208;2023-07-02T00:27:23;8.47;;;2.77;;
16153;SDS011;8182;55.648;13.208;2023-07-02T00:29:50;5.80;;;2.90;;
16153;SDS011;8182;55.648;13.208;2023-07-02T00:32:17;9.87;;;2.60;;
16153;SDS011;8182;55.648;13.208;2023-07-02T00:34:44;7.57;;;2.53;;
16153;SDS011;8182;55.648;13.208;2023-07-02T00:37:11;6.80;;;2.63;;
16153;SDS011;8182;55.648;13.208;2023-07-02T00:39:41;10.33;;;2.80;;
16153;SDS011;8182;55.648;13.208;2023-07-02T00:42:08;9.23;;;2.67;;
16153;SDS011;8182;55.648;13.208;2023-07-02T00:44:37;8.10;;;2.40;;
16153;SDS011;8182;55.648;13.208;2023-07-02T00:47:06;6.77;;;2.20;;
16153;SDS011;8182;55.648;13.208;2023-07-02T00:49:33;8.57;;;2.43;;
16153;SDS011;8182;55.648;13.208;2023-07-02T00:52:00;5.40;;;2.10;;
16153;SDS011;8182;55.648;13.208;2023-07-02T00:54:33;9.10;;;2.43;;
16153;SDS011;8182;55.648;13.208;2023-07-02T00:57:02;7.10;;;2.40;;
16153;SDS011;8182;55.648;13.208;2023-07-02T00:59:31;10.20;;;2.50;;
16153;SDS011;8182;55.648;13.208;2023-07-02T01:02:03;8.37;;;2.20;;
16153;SDS011;8182;55.648;13.208;2023-07-02T01:04:31;8.23;;;1.97;;
16153;SDS011;8182;55.648;13.208;2023-07-02T01:07:02;8.70;;;2.30;;
16153;SDS011;8182;55.648;13.208;2023-07-02T01:09:34;8.07;;;2.63;;
16153;SDS011;8182;55.648;13.208;2023-07-02T01:12:07;10.03;;;2.33;;
16153;SDS011;8182;55.648;13.208;2023-07-02T01:14:37;6.77;;;2.30;;
16153;SDS011;8182;55.648;13.208;2023-07-02T01:17:07;8.27;;;2.60;;
16153;SDS011;8182;55.648;13.208;2023-07-02T01:19:41;8.47;;;2.00;;
16153;SDS011;8182;55.648;13.208;2023-07-02T01:22:10;10.37;;;2.40;;
16153;SDS011;8182;55.648;13.208;2023-07-02T01:24:39;7.50;;;2.20;;
16153;SDS011;8182;55.648;13.208;2023-07-02T01:27:09;11.73;;;2.40;;
16153;SDS011;8182;55.648;13.208;2023-07-02T01:29:37;7.13;;;2.40;;
16153;SDS011;8182;55.648;13.208;2023-07-02T01:32:04;5.47;;;2.20;;
16153;SDS011;8182;55.648;13.208;2023-07-02T01:34:33;7.80;;;2.70;;
16153;SDS011;8182;55.648;13.208;2023-07-02T01:37:10;5.53;;;1.93;;
16153;SDS011;8182;55.648;13.208;2023-07-02T01:39:37;7.57;;;2.40;;
16153;SDS011;8182;55.648;13.208;2023-07-02T01:42:08;6.10;;;2.33;;
16153;SDS011;8182;55.648;13.208;2023-07-02T01:44:36;7.70;;;2.07;;
16153;SDS011;8182;55.648;13.208;2023-07-02T01:47:04;7.23;;;2.50;;
16153;SDS011;8182;55.648;13.208;2023-07-02T01:49:32;10.47;;;2.73;;
16153;SDS011;8182;55.648;13.208;2023-07-02T01:52:04;7.40;;;2.60;;
16153;SDS011;8182;55.648;13.208;2023-07-02T01:54:36;7.50;;;2.30;;
16153;SDS011;8182;55.648;13.208;2023-07-02T01:57:03;8.33;;;2.40;;
16153;SDS011;8182;55.648;13.208;2023-07-02T01:59:31;6.10;;;2.37;;
16153;SDS011;8182;55.648;13.208;2023-07-02T02:01:59;8.13;;;2.87;;
16153;SDS011;8182;55.648;13.208;2023-07-02T02:04:26;10.10;;;2.70;;
16153;SDS011;8182;55.648;13.208;2023-07-02T02:06:53;9.70;;;2.47;;
16153;SDS011;8182;55.648;13.208;2023-07-02T02:09:21;7.53;;;2.47;;
16153;SDS011;8182;55.648;13.208;2023-07-02T02:11:50;9.87;;;3.00;;
16153;SDS011;8182;55.648;13.208;2023-07-02T02:14:18;6.67;;;2.20;;
16153;SDS011;8182;55.648;13.208;2023-07-02T02:16:47;13.10;;;2.43;;
16153;SDS011;8182;55.648;13.208;2023-07-02T02:19:13;8.30;;;2.60;;
16153;SDS011;8182;55.648;13.208;2023-07-02T02:21:41;12.53;;;3.27;;
16153;SDS011;8182;55.648;13.208;2023-07-02T02:24:08;5.07;;;2.60;;
16153;SDS011;8182;55.648;13.208;2023-07-02T02:26:35;9.70;;;2.77;;
16153;SDS011;8182;55.648;13.208;2023-07-02T02:29:04;11.13;;;2.70;;
16153;SDS011;8182;55.648;13.208;2023-07-02T02:31:31;8.57;;;2.63;;
16153;SDS011;8182;55.648;13.208;2023-07-02T02:34:01;7.87;;;2.60;;
16153;SDS011;8182;55.648;13.208;2023-07-02T02:36:28;8.67;;;2.93;;
16153;SDS011;8182;55.648;13.208;2023-07-02T02:38:54;8.47;;;2.60;;
16153;SDS011;8182;55.648;13.208;2023-07-02T02:41:21;6.97;;;2.80;;
16153;SDS011;8182;55.648;13.208;2023-07-02T02:43:51;9.40;;;2.93;;
16153;SDS011;8182;55.648;13.208;2023-07-02T02:46:20;8.97;;;3.03;;
16153;SDS011;8182;55.648;13.208;2023-07-02T02:48:51;6.90;;;2.70;;
16153;SDS011;8182;55.648;13.208;2023-07-02T02:51:18;12.60;;;3.17;;
16153;SDS011;8182;55.648;13.208;2023-07-02T02:53:45;9.80;;;2.70;;
16153;SDS011;8182;55.648;13.208;2023-07-02T02:56:15;7.83;;;2.70;;
16153;SDS011;8182;55.648;13.208;2023-07-02T02:58:43;9.90;;;2.73;;
16153;SDS011;8182;55.648;13.208;2023-07-02T03:01:10;10.73;;;2.90;;
16153;SDS011;8182;55.648;13.208;2023-07-02T03:03:39;12.23;;;3.30;;
16153;SDS011;8182;55.648;13.208;2023-07-02T03:06:10;11.90;;;3.80;;
16153;SDS011;8182;55.648;13.208;2023-07-02T03:08:38;13.57;;;3.47;;
16153;SDS011;8182;55.648;13.208;2023-07-02T03:11:06;9.50;;;3.00;;
16153;SDS011;8182;55.648;13.208;2023-07-02T03:13:33;7.87;;;3.10;;
16153;SDS011;8182;55.648;13.208;2023-07-02T03:16:01;11.70;;;3.83;;
16153;SDS011;8182;55.648;13.208;2023-07-02T03:18:30;9.47;;;3.20;;
16153;SDS011;8182;55.648;13.208;2023-07-02T03:20:58;13.13;;;3.80;;
16153;SDS011;8182;55.648;13.208;2023-07-02T03:23:30;11.47;;;3.77;;
16153;SDS011;8182;55.648;13.208;2023-07-02T03:25:57;10.17;;;3.77;;
16153;SDS011;8182;55.648;13.208;2023-07-02T03:28:24;12.77;;;3.67;;
16153;SDS011;8182;55.648;13.208;2023-07-02T03:30:55;9.10;;;3.60;;
16153;SDS011;8182;55.648;13.208;2023-07-02T03:33:22;13.30;;;3.67;;
16153;SDS011;8182;55.648;13.208;2023-07-02T03:35:49;8.53;;;3.30;;
16153;SDS011;8182;55.648;13.208;2023-07-02T03:38:20;13.40;;;3.97;;
16153;SDS011;8182;55.648;13.208;2023-07-02T03:40:47;10.10;;;3.87;;
16153;SDS011;8182;55.648;13.208;2023-07-02T03:43:14;10.37;;;4.17;;
16153;SDS011;8182;55.648;13.208;2023-07-02T03:45:41;11.73;;;4.00;;
16153;SDS011;8182;55.648;13.208;2023-07-02T03:48:15;11.77;;;4.10;;
16153;SDS011;8182;55.648;13.208;2023-07-02T03:50:42;12.17;;;4.10;;
16153;SDS011;8182;55.648;13.208;2023-07-02T03:53:09;9.50;;;4.03;;
16153;SDS011;8182;55.648;13.208;2023-07-02T03:55:37;12.17;;;4.50;;
16153;SDS011;8182;55.648;13.208;2023-07-02T03:58:05;11.93;;;3.83;;
16153;SDS011;8182;55.648;13.208;2023-07-02T04:00:32;17.20;;;4.10;;
16153;SDS011;8182;55.648;13.208;2023-07-02T04:03:01;12.00;;;3.67;;
16153;SDS011;8182;55.648;13.208;2023-07-02T04:05:40;8.10;;;3.80;;
16153;SDS011;8182;55.648;13.208;2023-07-02T04:08:07;9.90;;;3.53;;
16153;SDS011;8182;55.648;13.208;2023-07-02T04:10:37;9.93;;;3.27;;
16153;SDS011;8182;55.648;13.208;2023-07-02T04:13:06;10.77;;;4.10;;
16153;SDS011;8182;55.648;13.208;2023-07-02T04:15:33;14.37;;;3.53;;
16153;SDS011;8182;55.648;13.208;2023-07-02T04:18:02;9.70;;;3.87;;
16153;SDS011;8182;55.648;13.208;2023-07-02T04:20:33;9.00;;;3.80;;
16153;SDS011;8182;55.648;13.208;2023-07-02T04:23:03;11.73;;;3.63;;
16153;SDS011;8182;55.648;13.208;2023-07-02T04:25:30;8.07;;;3.90;;
16153;SDS011;8182;55.648;13.208;2023-07-02T04:27:58;9.87;;;3.60;;
16153;SDS011;8182;55.648;13.208;2023-07-02T04:30:25;9.80;;;3.80;;
16153;SDS011;8182;55.648;13.208;2023-07-02T04:32:52;14.50;;;4.53;;
16153;SDS011;8182;55.648;13.208;2023-07-02T04:35:19;11.23;;;3.83;;
16153;SDS011;8182;55.648;13.208;2023-07-02T04:37:47;13.00;;;3.70;;
16153;SDS011;8182;55.648;13.208;2023-07-02T04:40:14;9.13;;;3.87;;
16153;SDS011;8182;55.648;13.208;2023-07-02T04:42:41;8.77;;;4.07;;
16153;SDS011;8182;55.648;13.208;2023-07-02T04:45:13;10.10;;;4.03;;
16153;SDS011;8182;55.648;13.208;2023-07-02T04:47:41;11.63;;;4.13;;
16153;SDS011;8182;55.648;13.208;2023-07-02T04:50:11;15.50;;;4.77;;
16153;SDS011;8182;55.648;13.208;2023-07-02T04:52:38;11.43;;;3.90;;
16153;SDS011;8182;55.648;13.208;2023-07-02T04:55:06;13.80;;;4.50;;
16153;SDS011;8182;55.648;13.208;2023-07-02T04:57:42;11.70;;;3.90;;
16153;SDS011;8182;55.648;13.208;2023-07-02T05:00:23;11.43;;;4.20;;
16153;SDS011;8182;55.648;13.208;2023-07-02T05:02:50;12.90;;;3.90;;
16153;SDS011;8182;55.648;13.208;2023-07-02T05:05:17;11.30;;;4.07;;
16153;SDS011;8182;55.648;13.208;2023-07-02T05:07:47;12.33;;;4.20;;
16153;SDS011;8182;55.648;13.208;2023-07-02T05:10:16;12.97;;;4.00;;
16153;SDS011;8182;55.648;13.208;2023-07-02T05:12:43;11.03;;;4.80;;
16153;SDS011;8182;55.648;13.208;2023-07-02T05:15:10;11.67;;;4.47;;
16153;SDS011;8182;55.648;13.208;2023-07-02T05:17:39;9.67;;;3.70;;
16153;SDS011;8182;55.648;13.208;2023-07-02T05:20:07;13.63;;;4.57;;
16153;SDS011;8182;55.648;13.208;2023-07-02T05:22:37;11.27;;;4.27;;
16153;SDS011;8182;55.648;13.208;2023-07-02T05:25:07;12.20;;;4.53;;
16153;SDS011;8182;55.648;13.208;2023-07-02T05:27:35;18.67;;;4.37;;
16153;SDS011;8182;55.648;13.208;2023-07-02T05:30:02;10.57;;;4.07;;
16153;SDS011;8182;55.648;13.208;2023-07-02T05:32:29;15.33;;;4.20;;
16153;SDS011;8182;55.648;13.208;2023-07-02T05:34:58;13.33;;;4.60;;
16153;SDS011;8182;55.648;13.208;2023-07-02T05:37:25;13.87;;;4.20;;
16153;SDS011;8182;55.648;13.208;2023-07-02T05:39:54;13.67;;;4.50;;
16153;SDS011;8182;55.648;13.208;2023-07-02T05:42:21;11.87;;;4.60;;
16153;SDS011;8182;55.648;13.208;2023-07-02T05:44:49;16.83;;;4.63;;
16153;SDS011;8182;55.648;13.208;2023-07-02T05:47:16;17.23;;;4.30;;
16153;SDS011;8182;55.648;13.208;2023-07-02T05:49:43;14.27;;;4.90;;
16153;SDS011;8182;55.648;13.208;2023-07-02T05:52:11;12.90;;;4.20;;
16153;SDS011;8182;55.648;13.208;2023-07-02T05:54:39;11.67;;;4.40;;
16153;SDS011;8182;55.648;13.208;2023-07-02T05:57:09;13.93;;;4.57;;
16153;SDS011;8182;55.648;13.208;2023-07-02T05:59:37;17.77;;;5.00;;
16153;SDS011;8182;55.648;13.208;2023-07-02T06:02:04;16.57;;;4.77;;
16153;SDS011;8182;55.648;13.208;2023-07-02T06:04:32;19.80;;;4.83;;
16153;SDS011;8182;55.648;13.208;2023-07-02T06:06:59;14.80;;;4.90;;
16153;SDS011;8182;55.648;13.208;2023-07-02T06:09:29;15.83;;;4.80;;
16153;SDS011;8182;55.648;13.208;2023-07-02T06:11:58;13.40;;;4.47;;
16153;SDS011;8182;55.648;13.208;2023-07-02T06:14:25;15.57;;;5.00;;
16153;SDS011;8182;55.648;13.208;2023-07-02T06:16:52;16.87;;;5.30;;
16153;SDS011;8182;55.648;13.208;2023-07-02T06:19:25;15.77;;;4.60;;
16153;SDS011;8182;55.648;13.208;2023-07-02T06:21:52;13.93;;;4.40;;
16153;SDS011;8182;55.648;13.208;2023-07-02T06:24:19;14.37;;;4.80;;
16153;SDS011;8182;55.648;13.208;2023-07-02T06:26:48;15.87;;;4.47;;
16153;SDS011;8182;55.648;13.208;2023-07-02T06:29:15;14.63;;;4.60;;
16153;SDS011;8182;55.648;13.208;2023-07-02T06:31:42;10.63;;;4.00;;
16153;SDS011;8182;55.648;13.208;2023-07-02T06:34:09;21.47;;;5.10;;
16153;SDS011;8182;55.648;13.208;2023-07-02T06:36:40;12.97;;;3.90;;
16153;SDS011;8182;55.648;13.208;2023-07-02T06:39:10;10.07;;;4.17;;
16153;SDS011;8182;55.648;13.208;2023-07-02T06:41:37;10.43;;;4.23;;
16153;SDS011;8182;55.648;13.208;2023-07-02T06:44:10;13.27;;;4.13;;
16153;SDS011;8182;55.648;13.208;2023-07-02T06:46:37;12.70;;;3.60;;
16153;SDS011;8182;55.648;13.208;2023-07-02T06:49:08;12.57;;;4.40;;
16153;SDS011;8182;55.648;13.208;2023-07-02T06:51:42;15.43;;;4.47;;
16153;SDS011;8182;55.648;13.208;2023-07-02T06:54:09;9.77;;;3.97;;
16153;SDS011;8182;55.648;13.208;2023-07-02T06:56:38;9.40;;;3.40;;
16153;SDS011;8182;55.648;13.208;2023-07-02T06:59:05;9.40;;;3.57;;
16153;SDS011;8182;55.648;13.208;2023-07-02T07:01:36;9.67;;;3.73;;
16153;SDS011;8182;55.648;13.208;2023-07-02T07:04:03;15.17;;;4.00;;
16153;SDS011;8182;55.648;13.208;2023-07-02T07:06:30;10.77;;;3.67;;
16153;SDS011;8182;55.648;13.208;2023-07-02T07:08:57;11.10;;;3.87;;
16153;SDS011;8182;55.648;13.208;2023-07-02T07:11:37;13.93;;;3.70;;
16153;SDS011;8182;55.648;13.208;2023-07-02T07:14:07;9.20;;;2.77;;
16153;SDS011;8182;55.648;13.208;2023-07-02T07:16:34;8.23;;;2.90;;
16153;SDS011;8182;55.648;13.208;2023-07-02T07:19:05;12.03;;;3.63;;
16153;SDS011;8182;55.648;13.208;2023-07-02T07:21:32;9.27;;;3.23;;
16153;SDS011;8182;55.648;13.208;2023-07-02T07:24:08;7.37;;;3.07;;
16153;SDS011;8182;55.648;13.208;2023-07-02T07:26:38;10.93;;;3.10;;
16153;SDS011;8182;55.648;13.208;2023-07-02T07:29:08;9.00;;;3.00;;
16153;SDS011;8182;55.648;13.208;2023-07-02T07:31:35;11.43;;;3.70;;
16153;SDS011;8182;55.648;13.208;2023-07-02T07:34:09;14.03;;;3.80;;
16153;SDS011;8182;55.648;13.208;2023-07-02T07:36:36;10.80;;;3.93;;
16153;SDS011;8182;55.648;13.208;2023-07-02T07:39:03;16.50;;;4.27;;
16153;SDS011;8182;55.648;13.208;2023-07-02T07:41:31;16.47;;;3.87;;
16153;SDS011;8182;55.648;13.208;2023-07-02T07:43:58;11.83;;;4.03;;
16153;SDS011;8182;55.648;13.208;2023-07-02T07:46:26;9.00;;;3.90;;
16153;SDS011;8182;55.648;13.208;2023-07-02T07:48:53;10.50;;;4.10;;
16153;SDS011;8182;55.648;13.208;2023-07-02T07:51:24;14.27;;;4.20;;
16153;SDS011;8182;55.648;13.208;2023-07-02T07:53:51;16.67;;;4.20;;
16153;SDS011;8182;55.648;13.208;2023-07-02T07:56:19;13.13;;;4.20;;
16153;SDS011;8182;55.648;13.208;2023-07-02T07:58:46;13.73;;;4.30;;
16153;SDS011;8182;55.648;13.208;2023-07-02T08:01:12;12.57;;;4.43;;
16153;SDS011;8182;55.648;13.208;2023-07-02T08:03:39;10.07;;;4.00;;
16153;SDS011;8182;55.648;13.208;2023-07-02T08:06:07;11.60;;;3.60;;
16153;SDS011;8182;55.648;13.208;2023-07-02T08:08:37;10.37;;;4.10;;
16153;SDS011;8182;55.648;13.208;2023-07-02T08:11:04;10.67;;;4.23;;
16153;SDS011;8182;55.648;13.208;2023-07-02T08:13:31;12.07;;;4.40;;
16153;SDS011;8182;55.648;13.208;2023-07-02T08:15:58;15.43;;;5.07;;
16153;SDS011;8182;55.648;13.208;2023-07-02T08:18:25;13.40;;;4.87;;
16153;SDS011;8182;55.648;13.208;2023-07-02T08:20:52;11.97;;;4.53;;
16153;SDS011;8182;55.648;13.208;2023-07-02T08:23:19;10.57;;;4.60;;
16153;SDS011;8182;55.648;13.208;2023-07-02T08:25:48;11.30;;;4.20;;
16153;SDS011;8182;55.648;13.208;2023-07-02T08:28:15;12.23;;;4.37;;
16153;SDS011;8182;55.648;13.208;2023-07-02T08:30:42;11.70;;;4.30;;
16153;SDS011;8182;55.648;13.208;2023-07-02T08:33:09;14.97;;;4.90;;
16153;SDS011;8182;55.648;13.208;2023-07-02T08:35:36;10.70;;;4.53;;
16153;SDS011;8182;55.648;13.208;2023-07-02T08:38:06;13.97;;;4.63;;
16153;SDS011;8182;55.648;13.208;2023-07-02T08:40:37;11.17;;;4.33;;
16153;SDS011;8182;55.648;13.208;2023-07-02T08:43:05;11.07;;;4.27;;
16153;SDS011;8182;55.648;13.208;2023-07-02T08:45:34;11.40;;;4.40;;
16153;SDS011;8182;55.648;13.208;2023-07-02T08:48:02;11.10;;;4.23;;
16153;SDS011;8182;55.648;13.208;2023-07-02T08:50:31;9.87;;;4.70;;
16153;SDS011;8182;55.648;13.208;2023-07-02T08:53:07;13.17;;;4.57;;
16153;SDS011;8182;55.648;13.208;2023-07-02T08:55:34;16.33;;;4.73;;
16153;SDS011;8182;55.648;13.208;2023-07-02T08:58:09;10.17;;;4.40;;
16153;SDS011;8182;55.648;13.208;2023-07-02T09:00:36;14.20;;;4.73;;
16153;SDS011;8182;55.648;13.208;2023-07-02T09:03:13;8.97;;;4.37;;
16153;SDS011;8182;55.648;13.208;2023-07-02T09:05:48;11.33;;;5.07;;
16153;SDS011;8182;55.648;13.208;2023-07-02T09:08:25;8.97;;;3.87;;
16153;SDS011;8182;55.648;13.208;2023-07-02T09:10:53;10.17;;;4.80;;
16153;SDS011;8182;55.648;13.208;2023-07-02T09:13:23;8.40;;;4.53;;
16153;SDS011;8182;55.648;13.208;2023-07-02T09:15:50;10.27;;;4.57;;
16153;SDS011;8182;55.648;13.208;2023-07-02T09:18:24;8.93;;;4.30;;
16153;SDS011;8182;55.648;13.208;2023-07-02T09:20:52;8.03;;;4.33;;
16153;SDS011;8182;55.648;13.208;2023-07-02T09:23:21;10.93;;;4.33;;
16153;SDS011;8182;55.648;13.208;2023-07-02T09:25:48;7.03;;;4.40;;
16153;SDS011;8182;55.648;13.208;2023-07-02T09:28:16;11.97;;;4.67;;
16153;SDS011;8182;55.648;13.208;2023-07-02T09:30:53;10.93;;;4.60;;
16153;SDS011;8182;55.648;13.208;2023-07-02T09:33:24;8.57;;;4.67;;
16153;SDS011;8182;55.648;13.208;2023-07-02T09:35:51;11.27;;;5.03;;
16153;SDS011;8182;55.648;13.208;2023-07-02T09:38:23;8.70;;;3.90;;
16153;SDS011;8182;55.648;13.208;2023-07-02T09:40:50;9.37;;;4.77;;
16153;SDS011;8182;55.648;13.208;2023-07-02T09:43:19;8.10;;;4.90;;
16153;SDS011;8182;55.648;13.208;2023-07-02T09:45:52;8.30;;;4.63;;
16153;SDS011;8182;55.648;13.208;2023-07-02T09:48:23;9.03;;;4.63;;
16153;SDS011;8182;55.648;13.208;2023-07-02T09:50:51;10.17;;;4.70;;
16153;SDS011;8182;55.648;13.208;2023-07-02T09:53:22;10.00;;;4.57;;
16153;SDS011;8182;55.648;13.208;2023-07-02T09:55:49;7.73;;;4.67;;
16153;SDS011;8182;55.648;13.208;2023-07-02T09:58:16;9.50;;;4.80;;
16153;SDS011;8182;55.648;13.208;2023-07-02T10:00:43;10.97;;;4.53;;
16153;SDS011;8182;55.648;13.208;2023-07-02T10:03:12;10.47;;;4.57;;
16153;SDS011;8182;55.648;13.208;2023-07-02T10:05:42;7.17;;;4.20;;
16153;SDS011;8182;55.648;13.208;2023-07-02T10:08:12;11.43;;;4.70;;
16153;SDS011;8182;55.648;13.208;2023-07-02T10:10:42;10.77;;;4.80;;
16153;SDS011;8182;55.648;13.208;2023-07-02T10:13:10;14.07;;;4.90;;
16153;SDS011;8182;55.648;13.208;2023-07-02T10:15:37;8.20;;;4.60;;
16153;SDS011;8182;55.648;13.208;2023-07-02T10:18:05;7.60;;;4.47;;
16153;SDS011;8182;55.648;13.208;2023-07-02T10:20:37;10.10;;;4.93;;
16153;SDS011;8182;55.648;13.208;2023-07-02T10:23:10;10.63;;;4.63;;
16153;SDS011;8182;55.648;13.208;2023-07-02T10:25:38;15.90;;;4.87;;
16153;SDS011;8182;55.648;13.208;2023-07-02T10:28:14;8.27;;;4.80;;
16153;SDS011;8182;55.648;13.208;2023-07-02T10:30:44;10.23;;;4.23;;
16153;SDS011;8182;55.648;13.208;2023-07-02T10:33:11;7.13;;;4.47;;
16153;SDS011;8182;55.648;13.208;2023-07-02T10:35:42;8.47;;;4.40;;
16153;SDS011;8182;55.648;13.208;2023-07-02T10:38:15;7.70;;;3.50;;
16153;SDS011;8182;55.648;13.208;2023-07-02T10:40:44;10.07;;;3.33;;
16153;SDS011;8182;55.648;13.208;2023-07-02T10:43:23;11.93;;;3.70;;
16153;SDS011;8182;55.648;13.208;2023-07-02T10:45:50;10.63;;;3.47;;
16153;SDS011;8182;55.648;13.208;2023-07-02T10:48:17;14.47;;;3.17;;
16153;SDS011;8182;55.648;13.208;2023-07-02T10:50:46;4.67;;;2.67;;
16153;SDS011;8182;55.648;13.208;2023-07-02T10:53:17;7.07;;;2.57;;
16153;SDS011;8182;55.648;13.208;2023-07-02T10:55:53;6.13;;;2.50;;
16153;SDS011;8182;55.648;13.208;2023-07-02T10:58:21;4.73;;;2.03;;
16153;SDS011;8182;55.648;13.208;2023-07-02T11:00:48;3.13;;;1.90;;
16153;SDS011;8182;55.648;13.208;2023-07-02T11:03:21;3.13;;;1.70;;
16153;SDS011;8182;55.648;13.208;2023-07-02T11:05:51;4.20;;;1.73;;
16153;SDS011;8182;55.648;13.208;2023-07-02T11:08:19;5.50;;;1.93;;
16153;SDS011;8182;55.648;13.208;2023-07-02T11:10:46;3.23;;;1.77;;
16153;SDS011;8182;55.648;13.208;2023-07-02T11:13:13;5.40;;;1.77;;
16153;SDS011;8182;55.648;13.208;2023-07-02T11:15:41;3.17;;;1.60;;
16153;SDS011;8182;55.648;13.208;2023-07-02T11:18:10;5.03;;;1.87;;
16153;SDS011;8182;55.648;13.208;2023-07-02T11:20:38;4.30;;;2.23;;
16153;SDS011;8182;55.648;13.208;2023-07-02T11:23:17;4.77;;;2.40;;
16153;SDS011;8182;55.648;13.208;2023-07-02T11:25:54;3.87;;;2.30;;
16153;SDS011;8182;55.648;13.208;2023-07-02T11:28:24;6.20;;;2.27;;
16153;SDS011;8182;55.648;13.208;2023-07-02T11:30:55;3.47;;;2.00;;
16153;SDS011;8182;55.648;13.208;2023-07-02T11:33:32;5.23;;;2.30;;
16153;SDS011;8182;55.648;13.208;2023-07-02T11:36:01;4.27;;;2.10;;
16153;SDS011;8182;55.648;13.208;2023-07-02T11:38:30;3.03;;;2.10;;
16153;SDS011;8182;55.648;13.208;2023-07-02T11:40:57;3.77;;;2.20;;
16153;SDS011;8182;55.648;13.208;2023-07-02T11:43:24;3.57;;;1.87;;
16153;SDS011;8182;55.648;13.208;2023-07-02T11:45:52;5.17;;;2.20;;
16153;SDS011;8182;55.648;13.208;2023-07-02T11:48:22;3.63;;;2.30;;
16153;SDS011;8182;55.648;13.208;2023-07-02T11:50:49;6.43;;;2.60;;
16153;SDS011;8182;55.648;13.208;2023-07-02T11:53:22;5.93;;;2.40;;
16153;SDS011;8182;55.648;13.208;2023-07-02T11:55:53;6.70;;;2.60;;
16153;SDS011;8182;55.648;13.208;2023-07-02T11:58:20;5.00;;;2.50;;
16153;SDS011;8182;55.648;13.208;2023-07-02T12:00:48;5.33;;;2.30;;
16153;SDS011;8182;55.648;13.208;2023-07-02T12:03:15;4.50;;;2.33;;
16153;SDS011;8182;55.648;13.208;2023-07-02T12:05:45;4.90;;;2.50;;
16153;SDS011;8182;55.648;13.208;2023-07-02T12:08:12;3.10;;;2.03;;
16153;SDS011;8182;55.648;13.208;2023-07-02T12:10:39;3.57;;;2.20;;
16153;SDS011;8182;55.648;13.208;2023-07-02T12:13:08;5.80;;;2.60;;
16153;SDS011;8182;55.648;13.208;2023-07-02T12:15:37;9.10;;;2.70;;
16153;SDS011;8182;55.648;13.208;2023-07-02T12:18:05;4.13;;;2.40;;
16153;SDS011;8182;55.648;13.208;2023-07-02T12:20:39;8.83;;;2.70;;
16153;SDS011;8182;55.648;13.208;2023-07-02T12:23:07;6.37;;;2.23;;
16153;SDS011;8182;55.648;13.208;2023-07-02T12:25:36;4.33;;;1.50;;
16153;SDS011;8182;55.648;13.208;2023-07-02T12:28:03;2.67;;;1.40;;
16153;SDS011;8182;55.648;13.208;2023-07-02T12:30:33;4.30;;;1.30;;
16153;SDS011;8182;55.648;13.208;2023-07-02T12:33:00;2.00;;;1.30;;
16153;SDS011;8182;55.648;13.208;2023-07-02T12:35:27;3.90;;;1.50;;
16153;SDS011;8182;55.648;13.208;2023-07-02T12:37:54;4.00;;;1.40;;
16153;SDS011;8182;55.648;13.208;2023-07-02T12:40:21;6.70;;;1.40;;
16153;SDS011;8182;55.648;13.208;2023-07-02T12:43:00;3.27;;;1.70;;
16153;SDS011;8182;55.648;13.208;2023-07-02T12:45:27;6.83;;;1.60;;
16153;SDS011;8182;55.648;13.208;2023-07-02T12:47:56;3.77;;;1.70;;
16153;SDS011;8182;55.648;13.208;2023-07-02T12:50:23;5.30;;;1.80;;
16153;SDS011;8182;55.648;13.208;2023-07-02T12:52:50;8.20;;;2.00;;
16153;SDS011;8182;55.648;13.208;2023-07-02T12:55:16;5.40;;;1.90;;
16153;SDS011;8182;55.648;13.208;2023-07-02T12:57:44;5.80;;;2.20;;
16153;SDS011;8182;55.648;13.208;2023-07-02T13:00:11;9.57;;;2.20;;
16153;SDS011;8182;55.648;13.208;2023-07-02T13:02:39;8.50;;;2.20;;
16153;SDS011;8182;55.648;13.208;2023-07-02T13:05:10;6.37;;;2.10;;
16153;SDS011;8182;55.648;13.208;2023-07-02T13:07:40;8.77;;;2.77;;
16153;SDS011;8182;55.648;13.208;2023-07-02T13:10:07;6.33;;;2.23;;
16153;SDS011;8182;55.648;13.208;2023-07-02T13:12:35;7.20;;;2.40;;
16153;SDS011;8182;55.648;13.208;2023-07-02T13:15:02;9.47;;;2.67;;
16153;SDS011;8182;55.648;13.208;2023-07-02T13:17:29;7.87;;;2.47;;
16153;SDS011;8182;55.648;13.208;2023-07-02T13:19:56;8.17;;;2.30;;
16153;SDS011;8182;55.648;13.208;2023-07-02T13:22:27;7.90;;;2.47;;
16153;SDS011;8182;55.648;13.208;2023-07-02T13:24:54;11.67;;;2.73;;
16153;SDS011;8182;55.648;13.208;2023-07-02T13:27:21;14.50;;;2.80;;
16153;SDS011;8182;55.648;13.208;2023-07-02T13:29:48;10.77;;;3.20;;
16153;SDS011;8182;55.648;13.208;2023-07-02T13:32:15;5.83;;;2.80;;
16153;SDS011;8182;55.648;13.208;2023-07-02T13:34:42;6.73;;;2.40;;
16153;SDS011;8182;55.648;13.208;2023-07-02T13:37:09;7.47;;;2.80;;
16153;SDS011;8182;55.648;13.208;2023-07-02T13:39:38;9.90;;;2.97;;
16153;SDS011;8182;55.648;13.208;2023-07-02T13:42:06;6.63;;;2.70;;
16153;SDS011;8182;55.648;13.208;2023-07-02T13:44:34;6.47;;;2.97;;
16153;SDS011;8182;55.648;13.208;2023-07-02T13:47:01;5.77;;;2.60;;
16153;SDS011;8182;55.648;13.208;2023-07-02T13:49:27;7.77;;;2.80;;
16153;SDS011;8182;55.648;13.208;2023-07-02T13:51:55;15.37;;;3.20;;
16153;SDS011;8182;55.648;13.208;2023-07-02T13:54:21;8.40;;;3.13;;
16153;SDS011;8182;55.648;13.208;2023-07-02T13:56:51;9.60;;;3.57;;
16153;SDS011;8182;55.648;13.208;2023-07-02T13:59:20;7.47;;;3.17;;
16153;SDS011;8182;55.648;13.208;2023-07-02T14:01:47;3.90;;;2.60;;
16153;SDS011;8182;55.648;13.208;2023-07-02T14:04:14;9.63;;;3.03;;
16153;SDS011;8182;55.648;13.208;2023-07-02T14:06:43;6.97;;;2.83;;
16153;SDS011;8182;55.648;13.208;2023-07-02T14:09:10;7.03;;;2.53;;
16153;SDS011;8182;55.648;13.208;2023-07-02T14:11:38;10.43;;;3.17;;
16153;SDS011;8182;55.648;13.208;2023-07-02T14:14:06;6.80;;;2.60;;
16153;SDS011;8182;55.648;13.208;2023-07-02T14:16:35;6.17;;;2.67;;
16153;SDS011;8182;55.648;13.208;2023-07-02T14:19:02;7.20;;;2.90;;
16153;SDS011;8182;55.648;13.208;2023-07-02T14:21:29;7.43;;;2.80;;
16153;SDS011;8182;55.648;13.208;2023-07-02T14:23:57;5.50;;;2.50;;
16153;SDS011;8182;55.648;13.208;2023-07-02T14:26:24;10.07;;;2.80;;
16153;SDS011;8182;55.648;13.208;2023-07-02T14:28:53;5.37;;;3.07;;
16153;SDS011;8182;55.648;13.208;2023-07-02T14:31:20;7.83;;;3.23;;
16153;SDS011;8182;55.648;13.208;2023-07-02T14:33:49;5.50;;;2.93;;
16153;SDS011;8182;55.648;13.208;2023-07-02T14:36:16;4.70;;;2.67;;
16153;SDS011;8182;55.648;13.208;2023-07-02T14:38:43;9.80;;;3.00;;
16153;SDS011;8182;55.648;13.208;2023-07-02T14:41:10;6.20;;;2.90;;
16153;SDS011;8182;55.648;13.208;2023-07-02T14:43:37;7.13;;;3.10;;
16153;SDS011;8182;55.648;13.208;2023-07-02T14:46:07;12.00;;;3.20;;
16153;SDS011;8182;55.648;13.208;2023-07-02T14:48:34;8.47;;;3.03;;